createdAt,value
2023-01-01T00:00:24.353Z,4.53
2023-01-01T00:02:52.327Z,4.60
2023-01-01T00:05:20.285Z,4.67
2023-01-01T00:07:48.208Z,4.71
2023-01-01T00:10:31.382Z,4.62
2023-01-01T00:13:01.682Z,4.48
2023-01-01T00:15:30.125Z,4.43
2023-01-01T00:17:58.660Z,4.49
2023-01-01T00:20:33.178Z,4.60
2023-01-01T00:23:03.035Z,4.54
2023-01-01T00:25:32.590Z,4.54
2023-01-01T00:28:02.243Z,4.34
2023-01-01T00:30:30.163Z,4.21
2023-01-01T00:32:58.105Z,4.58
2023-01-01T00:35:26.222Z,4.82
2023-01-01T00:37:55.312Z,4.95
2023-01-01T00:40:23.424Z,4.95
2023-01-01T00:42:51.391Z,4.90
2023-01-01T00:45:22.752Z,4.85
2023-01-01T00:47:51.783Z,4.91
2023-01-01T00:50:20.152Z,4.79
2023-01-01T00:52:49.186Z,4.71
2023-01-01T00:55:17.745Z,4.85
2023-01-01T00:57:45.758Z,4.70
2023-01-01T01:00:15.315Z,4.66
2023-01-01T01:02:44.810Z,4.77
2023-01-01T01:05:13.065Z,4.68
2023-01-01T01:07:41.014Z,4.61
2023-01-01T01:10:10.056Z,4.66
2023-01-01T01:12:37.971Z,4.67
2023-01-01T01:15:07.675Z,4.70
2023-01-01T01:17:35.698Z,4.82
2023-01-01T01:20:05.786Z,4.91
2023-01-01T01:22:34.940Z,4.90
2023-01-01T01:25:02.985Z,5.05
2023-01-01T01:27:30.933Z,5.07
2023-01-01T01:29:58.866Z,4.96
2023-01-01T01:32:26.867Z,4.96
2023-01-01T01:34:54.782Z,4.88
2023-01-01T01:37:24.157Z,4.87
2023-01-01T01:39:54.197Z,5.01
2023-01-01T01:42:23.055Z,4.99
2023-01-01T01:44:59.155Z,5.09
2023-01-01T01:47:32.696Z,5.11
2023-01-01T01:50:07.056Z,5.07
2023-01-01T01:52:37.592Z,4.91
2023-01-01T01:55:09.189Z,4.75
2023-01-01T01:57:38.949Z,4.82
2023-01-01T02:00:11.227Z,4.76
2023-01-01T02:02:46.039Z,4.67
2023-01-01T02:05:14.248Z,4.82
2023-01-01T02:07:44.269Z,4.78
2023-01-01T02:10:12.682Z,4.82
2023-01-01T02:12:40.701Z,4.74
2023-01-01T02:15:10.627Z,4.66
2023-01-01T02:17:45.507Z,4.83
2023-01-01T02:20:26.169Z,4.68
2023-01-01T02:23:16.927Z,4.75
2023-01-01T02:25:59.056Z,4.87
2023-01-01T02:28:49.846Z,5.02
2023-01-01T02:31:23.548Z,5.12
2023-01-01T02:33:54.707Z,5.22
2023-01-01T02:36:24.289Z,5.27
2023-01-01T02:38:55.880Z,5.29
2023-01-01T02:41:28.545Z,5.37
2023-01-01T02:46:24.868Z,5.44
2023-01-01T02:48:54.417Z,5.43
2023-01-01T02:51:30.609Z,5.44
2023-01-01T02:54:06.423Z,5.40
2023-01-01T02:56:40.631Z,5.36
2023-01-01T02:59:35.899Z,5.29
2023-01-01T03:02:12.481Z,5.23
2023-01-01T03:04:51.111Z,5.18
2023-01-01T03:07:26.976Z,5.12
2023-01-01T03:10:02.890Z,4.92
2023-01-01T03:12:40.714Z,5.00
2023-01-01T03:15:16.747Z,4.99
2023-01-01T03:17:51.440Z,4.88
2023-01-01T03:20:23.957Z,4.71
2023-01-01T03:22:54.711Z,4.81
2023-01-01T03:25:26.868Z,4.79
2023-01-01T03:27:58.708Z,4.84
2023-01-01T03:30:30.759Z,4.87
2023-01-01T03:33:03.411Z,4.78
2023-01-01T03:35:39.272Z,4.75
2023-01-01T03:38:13.273Z,4.73
2023-01-01T03:40:41.727Z,4.76
2023-01-01T03:43:15.190Z,4.78
2023-01-01T03:45:47.475Z,4.74
2023-01-01T03:48:15.550Z,4.51
2023-01-01T03:50:57.607Z,4.48
2023-01-01T03:53:37.566Z,4.56
2023-01-01T03:56:16.626Z,4.60
2023-01-01T03:58:49.323Z,4.54
2023-01-01T04:01:24.267Z,4.55
2023-01-01T04:03:52.470Z,4.38
2023-01-01T04:06:20.746Z,4.28
2023-01-01T04:08:51.837Z,4.24
2023-01-01T04:11:41.758Z,4.34
2023-01-01T04:14:09.715Z,4.33
2023-01-01T04:16:39.156Z,4.52
2023-01-01T04:19:07.745Z,4.66
2023-01-01T04:21:35.651Z,4.77
2023-01-01T04:24:03.577Z,4.71
2023-01-01T04:26:31.495Z,4.66
2023-01-01T04:28:59.440Z,4.33
2023-01-01T04:31:27.373Z,4.40
2023-01-01T04:33:56.677Z,4.31
2023-01-01T04:36:24.675Z,4.45
2023-01-01T04:38:52.631Z,4.50
2023-01-01T04:41:20.666Z,4.46
2023-01-01T04:43:50.564Z,4.48
2023-01-01T04:46:19.454Z,4.55
2023-01-01T04:48:47.678Z,4.41
2023-01-01T04:51:18.717Z,4.54
2023-01-01T04:53:46.801Z,4.45
2023-01-01T04:56:17.002Z,4.59
2023-01-01T04:58:47.693Z,4.63
2023-01-01T05:01:17.778Z,4.69
2023-01-01T05:03:45.973Z,4.60
2023-01-01T05:06:14.692Z,4.60
2023-01-01T05:08:46.853Z,4.63
2023-01-01T05:11:17.033Z,4.59
2023-01-01T05:13:46.628Z,4.38
2023-01-01T05:16:16.109Z,4.42
2023-01-01T05:18:44.661Z,4.30
2023-01-01T05:21:14.368Z,4.28
2023-01-01T05:23:43.995Z,4.21
2023-01-01T05:26:13.628Z,4.05
2023-01-01T05:28:42.098Z,4.08
2023-01-01T05:31:12.174Z,4.13
2023-01-01T05:33:40.089Z,4.17
2023-01-01T05:36:10.295Z,4.08
2023-01-01T05:38:39.125Z,4.01
2023-01-01T05:41:09.607Z,4.02
2023-01-01T05:43:37.970Z,4.04
2023-01-01T05:46:08.158Z,4.03
2023-01-01T05:48:36.724Z,4.03
2023-01-01T05:51:08.574Z,4.11
2023-01-01T05:53:36.918Z,4.14
2023-01-01T05:56:05.350Z,4.04
2023-01-01T05:58:35.988Z,4.09
2023-01-01T06:01:08.718Z,4.15
2023-01-01T06:03:36.973Z,4.21
2023-01-01T06:06:06.442Z,4.34
2023-01-01T06:08:34.597Z,4.48
2023-01-01T06:11:03.988Z,4.35
2023-01-01T06:13:32.627Z,4.37
2023-01-01T06:16:03.468Z,4.48
2023-01-01T06:18:33.502Z,4.43
2023-01-01T06:21:06.222Z,4.59
2023-01-01T06:23:34.225Z,4.55
2023-01-01T06:26:10.051Z,4.51
2023-01-01T06:28:38.328Z,4.66
2023-01-01T06:31:10.756Z,4.67
2023-01-01T06:33:39.305Z,4.76
2023-01-01T06:36:09.722Z,4.93
2023-01-01T06:38:41.237Z,5.04
2023-01-01T06:41:11.647Z,5.13
2023-01-01T06:43:40.136Z,5.19
2023-01-01T06:46:16.027Z,5.29
2023-01-01T06:48:44.355Z,5.32
2023-01-01T06:51:15.143Z,5.50
2023-01-01T06:53:43.307Z,5.62
2023-01-01T06:56:11.828Z,5.74
2023-01-01T06:58:40.015Z,5.77
2023-01-01T07:01:12.274Z,6.00
2023-01-01T07:03:41.057Z,6.18
2023-01-01T07:06:10.187Z,6.31
2023-01-01T07:08:38.684Z,6.43
2023-01-01T07:11:06.873Z,6.63
2023-01-01T07:13:34.838Z,6.75
2023-01-01T07:16:08.332Z,6.81
2023-01-01T07:18:41.914Z,6.97
2023-01-01T07:21:29.403Z,7.09
2023-01-01T07:23:58.632Z,7.38
2023-01-01T07:26:27.177Z,7.52
2023-01-01T07:28:58.390Z,7.72
2023-01-01T07:31:32.533Z,7.89
2023-01-01T07:34:01.898Z,8.02
2023-01-01T07:36:29.885Z,8.11
2023-01-01T07:38:57.835Z,8.20
2023-01-01T07:41:25.772Z,8.29
2023-01-01T07:43:53.727Z,8.51
2023-01-01T07:46:21.710Z,8.57
2023-01-01T07:48:49.688Z,8.75
2023-01-01T07:51:19.016Z,8.80
2023-01-01T07:53:47.003Z,8.98
2023-01-01T07:56:15.035Z,9.17
2023-01-01T07:58:43.410Z,9.22
2023-01-01T08:01:12.874Z,9.34
2023-01-01T08:03:40.926Z,9.40
2023-01-01T08:06:10.568Z,9.54
2023-01-01T08:08:39.950Z,9.76
2023-01-01T08:11:08.164Z,9.94
2023-01-01T08:13:36.415Z,10.14
2023-01-01T08:16:04.799Z,10.23
2023-01-01T08:18:32.801Z,10.30
2023-01-01T08:21:00.971Z,10.53
2023-01-01T08:23:28.923Z,10.73
2023-01-01T08:26:02.135Z,10.64
2023-01-01T08:28:31.774Z,10.97
2023-01-01T08:31:00.410Z,11.04
2023-01-01T08:33:28.429Z,11.23
2023-01-01T08:35:56.587Z,11.25
2023-01-01T08:38:24.546Z,11.39
2023-01-01T08:40:52.481Z,11.56
2023-01-01T08:43:21.808Z,11.57
2023-01-01T08:45:49.739Z,11.58
2023-01-01T08:48:17.679Z,11.69
2023-01-01T08:50:45.604Z,11.80
2023-01-01T08:53:13.834Z,11.89
2023-01-01T08:55:41.762Z,11.87
2023-01-01T08:58:09.733Z,11.89
2023-01-01T09:00:39.046Z,12.13
2023-01-01T09:03:07.065Z,12.29
2023-01-01T09:05:35.154Z,12.46
2023-01-01T09:08:03.066Z,12.52
2023-01-01T09:10:31.708Z,12.61
2023-01-01T09:12:59.687Z,12.67
2023-01-01T09:15:27.608Z,12.75
2023-01-01T09:17:56.911Z,12.82
2023-01-01T09:20:24.873Z,12.94
2023-01-01T09:22:52.793Z,12.94
2023-01-01T09:25:20.855Z,13.05
2023-01-01T09:27:48.845Z,13.07
2023-01-01T09:30:16.987Z,12.98
2023-01-01T09:32:44.883Z,13.00
2023-01-01T09:35:14.192Z,12.97
2023-01-01T09:37:42.135Z,12.99
2023-01-01T09:40:25.026Z,13.00
2023-01-01T09:42:59.716Z,13.02
2023-01-01T09:45:30.839Z,13.03
2023-01-01T09:48:03.017Z,13.24
2023-01-01T09:50:37.556Z,13.35
2023-01-01T09:53:11.229Z,13.46
2023-01-01T09:55:46.064Z,13.46
2023-01-01T09:58:14.844Z,13.49
2023-01-01T10:00:46.194Z,13.62
2023-01-01T10:03:26.401Z,13.52
2023-01-01T10:06:02.248Z,13.67
2023-01-01T10:08:40.650Z,13.70
2023-01-01T10:11:17.264Z,13.74
2023-01-01T10:13:46.493Z,13.77
2023-01-01T10:16:24.933Z,13.82
2023-01-01T10:18:57.219Z,13.62
2023-01-01T10:21:31.725Z,13.80
2023-01-01T10:24:03.472Z,13.89
2023-01-01T10:26:35.384Z,13.91
2023-01-01T10:29:11.952Z,13.91
2023-01-01T10:31:42.759Z,13.92
2023-01-01T10:34:18.465Z,13.86
2023-01-01T10:36:48.086Z,13.69
2023-01-01T10:39:17.731Z,13.70
2023-01-01T10:41:46.126Z,13.74
2023-01-01T10:44:16.638Z,13.74
2023-01-01T10:46:49.878Z,13.52
2023-01-01T10:49:17.816Z,13.83
2023-01-01T10:51:49.409Z,13.87
2023-01-01T10:54:31.927Z,13.91
2023-01-01T10:57:00.132Z,14.02
2023-01-01T10:59:37.034Z,13.95
2023-01-01T11:02:19.356Z,14.07
2023-01-01T11:04:47.848Z,14.10
2023-01-01T11:07:29.005Z,14.10
2023-01-01T11:10:03.997Z,14.06
2023-01-01T11:13:04.264Z,13.95
2023-01-01T11:15:27.585Z,13.92
2023-01-01T11:18:04.869Z,13.91
2023-01-01T11:20:34.456Z,13.81
2023-01-01T11:23:20.051Z,13.96
2023-01-01T11:26:03.318Z,13.99
2023-01-01T11:28:34.418Z,14.00
2023-01-01T11:31:06.737Z,13.90
2023-01-01T11:33:37.811Z,14.07
2023-01-01T11:36:07.543Z,13.90
2023-01-01T11:38:36.972Z,14.08
2023-01-01T11:41:07.431Z,14.07
2023-01-01T11:43:41.452Z,14.06
2023-01-01T11:46:10.944Z,13.98
2023-01-01T11:48:44.440Z,13.95
2023-01-01T11:51:28.885Z,13.86
2023-01-01T11:54:12.144Z,13.77
2023-01-01T11:56:41.389Z,13.79
2023-01-01T11:59:16.063Z,13.84
2023-01-01T12:01:48.343Z,13.89
2023-01-01T12:04:21.350Z,13.86
2023-01-01T12:06:53.629Z,13.81
2023-01-01T12:09:27.278Z,13.81
2023-01-01T12:12:01.253Z,13.81
2023-01-01T12:14:33.007Z,13.85
2023-01-01T12:17:05.540Z,13.67
2023-01-01T12:19:41.340Z,13.56
2023-01-01T12:22:16.595Z,13.57
2023-01-01T12:24:49.906Z,13.66
2023-01-01T12:27:26.475Z,13.52
2023-01-01T12:30:04.948Z,13.57
2023-01-01T12:32:52.079Z,13.57
2023-01-01T12:35:41.089Z,13.64
2023-01-01T12:38:19.267Z,13.52
2023-01-01T12:40:57.517Z,13.70
2023-01-01T12:43:33.088Z,13.59
2023-01-01T12:46:16.769Z,13.43
2023-01-01T12:49:19.312Z,13.46
2023-01-01T12:51:58.539Z,13.45
2023-01-01T12:54:53.436Z,13.35
2023-01-01T12:57:30.560Z,13.35
2023-01-01T13:00:00.242Z,13.26
2023-01-01T13:02:31.068Z,13.19
2023-01-01T13:05:06.000Z,13.15
2023-01-01T13:07:40.076Z,13.26
2023-01-01T13:10:11.485Z,13.03
2023-01-01T13:12:41.091Z,13.21
2023-01-01T13:15:36.126Z,13.08
2023-01-01T13:18:06.435Z,13.03
2023-01-01T13:20:37.137Z,12.91
2023-01-01T13:23:05.405Z,12.90
2023-01-01T13:25:33.362Z,12.95
2023-01-01T13:28:14.270Z,12.95
2023-01-01T13:30:53.039Z,12.79
2023-01-01T13:33:29.643Z,12.77
2023-01-01T13:36:31.827Z,12.72
2023-01-01T13:39:00.953Z,12.62
2023-01-01T13:41:37.008Z,12.54
2023-01-01T13:44:21.553Z,12.33
2023-01-01T13:47:27.813Z,12.30
2023-01-01T13:50:06.301Z,12.18
2023-01-01T13:53:03.176Z,12.03
2023-01-01T13:55:57.596Z,11.93
2023-01-01T13:58:54.508Z,12.00
2023-01-01T14:01:42.380Z,11.77
2023-01-01T14:04:21.999Z,11.55
2023-01-01T14:06:53.779Z,11.74
2023-01-01T14:09:22.666Z,11.73
2023-01-01T14:11:50.618Z,11.63
2023-01-01T14:14:27.713Z,11.79
2023-01-01T14:17:01.298Z,11.67
2023-01-01T14:19:30.390Z,11.76
2023-01-01T14:21:58.623Z,11.79
2023-01-01T14:24:27.990Z,11.76
2023-01-01T14:26:56.711Z,11.74
2023-01-01T14:29:28.669Z,11.73
2023-01-01T14:31:59.893Z,11.58
2023-01-01T14:34:30.168Z,11.60
2023-01-01T14:36:59.826Z,11.61
2023-01-01T14:39:30.237Z,11.44
2023-01-01T14:42:03.540Z,11.16
2023-01-01T14:44:36.027Z,11.18
2023-01-01T14:47:06.819Z,11.26
2023-01-01T14:49:38.637Z,11.25
2023-01-01T14:52:13.358Z,11.25
2023-01-01T14:54:45.183Z,11.19
2023-01-01T14:57:19.038Z,11.10
2023-01-01T14:59:48.640Z,11.07
2023-01-01T15:02:22.068Z,10.90
2023-01-01T15:04:50.612Z,10.87
2023-01-01T15:07:23.062Z,10.79
2023-01-01T15:09:51.813Z,10.45
2023-01-01T15:12:20.474Z,10.63
2023-01-01T15:14:49.827Z,10.68
2023-01-01T15:17:20.753Z,10.63
2023-01-01T15:20:02.172Z,10.61
2023-01-01T15:22:33.063Z,10.55
2023-01-01T15:25:02.141Z,10.52
2023-01-01T15:27:32.327Z,10.42
2023-01-01T15:30:01.281Z,10.39
2023-01-01T15:32:33.186Z,10.34
2023-01-01T15:35:03.316Z,10.34
2023-01-01T15:37:34.656Z,10.34
2023-01-01T15:40:05.855Z,10.29
2023-01-01T15:42:36.368Z,10.19
2023-01-01T15:45:20.719Z,10.07
2023-01-01T15:47:50.952Z,10.10
2023-01-01T15:50:24.880Z,10.10
2023-01-01T15:52:56.156Z,10.04
2023-01-01T15:55:26.956Z,9.97
2023-01-01T15:57:56.311Z,9.96
2023-01-01T16:00:27.153Z,9.89
2023-01-01T16:03:01.680Z,9.90
2023-01-01T16:05:30.235Z,9.87
2023-01-01T16:08:00.520Z,9.86
2023-01-01T16:10:28.936Z,9.84
2023-01-01T16:12:56.957Z,9.79
2023-01-01T16:15:24.950Z,9.76
2023-01-01T16:17:53.052Z,9.73
2023-01-01T16:20:22.918Z,9.67
2023-01-01T16:22:50.868Z,9.65
2023-01-01T16:25:22.129Z,9.56
2023-01-01T16:27:50.056Z,9.56
2023-01-01T16:30:18.241Z,9.55
2023-01-01T16:32:49.195Z,9.53
2023-01-01T16:35:17.359Z,9.50
2023-01-01T16:37:46.690Z,9.44
2023-01-01T16:40:15.510Z,9.45
2023-01-01T16:42:43.570Z,9.43
2023-01-01T16:45:18.212Z,9.44
2023-01-01T16:47:46.999Z,9.40
2023-01-01T16:50:14.985Z,9.35
2023-01-01T16:52:44.955Z,9.31
2023-01-01T16:55:15.013Z,9.30
2023-01-01T16:57:43.605Z,9.31
2023-01-01T17:00:13.010Z,9.23
2023-01-01T17:02:41.457Z,9.23
2023-01-01T17:05:10.893Z,9.16
2023-01-01T17:07:38.867Z,9.15
2023-01-01T17:10:07.548Z,9.14
2023-01-01T17:12:36.924Z,9.16
2023-01-01T17:15:05.664Z,9.17
2023-01-01T17:17:33.630Z,9.14
2023-01-01T17:20:01.654Z,9.12
2023-01-01T17:22:34.165Z,9.12
2023-01-01T17:25:02.633Z,9.04
2023-01-01T17:27:30.602Z,9.02
2023-01-01T17:30:00.196Z,9.00
2023-01-01T17:32:28.294Z,8.92
2023-01-01T17:34:56.233Z,8.89
2023-01-01T17:37:24.161Z,8.66
2023-01-01T17:39:52.094Z,8.55
2023-01-01T17:42:20.034Z,8.61
2023-01-01T17:44:47.969Z,8.74
2023-01-01T17:47:17.265Z,8.78
2023-01-01T17:49:45.289Z,8.79
2023-01-01T17:52:13.248Z,8.80
2023-01-01T17:54:41.163Z,8.79
2023-01-01T17:57:09.203Z,8.77
2023-01-01T17:59:37.192Z,8.73
2023-01-01T18:02:06.043Z,8.71
2023-01-01T18:04:35.643Z,8.67
2023-01-01T18:07:06.386Z,8.68
2023-01-01T18:09:36.358Z,8.70
2023-01-01T18:12:04.312Z,8.62
2023-01-01T18:14:32.279Z,8.57
2023-01-01T18:17:00.243Z,8.52
2023-01-01T18:19:28.602Z,8.51
2023-01-01T18:21:57.937Z,8.49
2023-01-01T18:24:25.929Z,8.53
2023-01-01T18:26:53.856Z,8.50
2023-01-01T18:29:21.966Z,8.51
2023-01-01T18:31:51.538Z,8.56
2023-01-01T18:34:19.554Z,8.52
2023-01-01T18:36:47.885Z,8.46
2023-01-01T18:39:22.726Z,8.46
2023-01-01T18:42:12.342Z,8.34
2023-01-01T18:44:41.358Z,8.26
2023-01-01T18:47:15.076Z,8.15
2023-01-01T18:49:48.796Z,7.84
2023-01-01T18:52:22.743Z,8.19
2023-01-01T18:55:02.220Z,8.20
2023-01-01T18:57:30.254Z,8.19
2023-01-01T19:00:00.445Z,8.13
2023-01-01T19:02:35.246Z,8.19
2023-01-01T19:05:16.517Z,8.19
2023-01-01T19:07:46.631Z,8.11
2023-01-01T19:10:16.298Z,8.17
2023-01-01T19:12:44.958Z,8.14
2023-01-01T19:15:18.312Z,8.06
2023-01-01T19:17:46.853Z,8.08
2023-01-01T19:20:19.787Z,8.05
2023-01-01T19:22:48.281Z,8.00
2023-01-01T19:25:37.311Z,8.04
2023-01-01T19:28:35.751Z,8.07
2023-01-01T19:31:05.693Z,8.04
2023-01-01T19:33:33.690Z,8.00
2023-01-01T19:36:01.740Z,7.99
2023-01-01T19:38:29.739Z,8.02
2023-01-01T19:40:59.064Z,8.00
2023-01-01T19:43:27.029Z,7.96
2023-01-01T19:45:54.945Z,7.97
2023-01-01T19:48:22.890Z,7.96
2023-01-01T19:50:51.248Z,7.93
2023-01-01T19:53:19.406Z,7.91
2023-01-01T19:55:47.343Z,7.88
2023-01-01T19:58:16.688Z,7.85
2023-01-01T20:00:44.678Z,7.84
2023-01-01T20:03:52.279Z,7.87
2023-01-01T20:06:00.684Z,7.83
2023-01-01T20:08:28.683Z,7.81
2023-01-01T20:10:56.650Z,7.79
2023-01-01T20:13:26.142Z,7.77
2023-01-01T20:15:54.128Z,7.78
2023-01-01T20:18:22.175Z,7.76
2023-01-01T20:21:07.361Z,7.77
2023-01-01T20:23:35.290Z,7.75
2023-01-01T20:26:04.149Z,7.71
2023-01-01T20:28:51.324Z,7.65
2023-01-01T20:31:19.280Z,7.63
2023-01-01T20:33:47.319Z,7.70
2023-01-01T20:36:32.844Z,7.71
2023-01-01T20:39:00.754Z,7.64
2023-01-01T20:41:28.654Z,7.68
2023-01-01T20:44:01.559Z,7.61
2023-01-01T20:46:30.847Z,7.62
2023-01-01T20:48:59.203Z,7.49
2023-01-01T20:51:27.185Z,7.54
2023-01-01T20:53:55.133Z,7.49
2023-01-01T20:56:23.120Z,7.55
2023-01-01T20:58:57.459Z,7.58
2023-01-01T21:01:28.925Z,7.41
2023-01-01T21:03:56.920Z,7.14
2023-01-01T21:06:25.113Z,6.90
2023-01-01T21:08:53.225Z,6.62
2023-01-01T21:11:21.268Z,6.04
2023-01-01T21:13:50.097Z,5.93
2023-01-01T21:16:20.695Z,5.86
2023-01-01T21:18:50.513Z,5.97
2023-01-01T21:21:22.056Z,6.22
2023-01-01T21:23:51.231Z,6.64
2023-01-01T21:26:24.664Z,6.39
2023-01-01T21:28:52.671Z,6.34
2023-01-01T21:31:20.652Z,6.54
2023-01-01T21:33:49.981Z,6.64
2023-01-01T21:36:20.557Z,6.71
2023-01-01T21:38:50.241Z,6.85
2023-01-01T21:41:23.680Z,6.98
2023-01-01T21:43:55.253Z,7.05
2023-01-01T21:46:32.487Z,7.11
2023-01-01T21:49:04.166Z,7.11
2023-01-01T21:51:33.950Z,7.16
2023-01-01T21:54:14.423Z,7.12
2023-01-01T21:56:44.257Z,6.96
2023-01-01T21:59:27.628Z,6.39
2023-01-01T22:01:59.256Z,6.53
2023-01-01T22:04:35.252Z,6.59
2023-01-01T22:07:30.896Z,6.54
2023-01-01T22:09:57.095Z,6.81
2023-01-01T22:12:28.191Z,6.95
2023-01-01T22:14:58.581Z,6.98
2023-01-01T22:17:33.424Z,6.97
2023-01-01T22:20:20.120Z,6.99
2023-01-01T22:22:48.080Z,7.05
2023-01-01T22:25:26.111Z,6.98
2023-01-01T22:27:54.033Z,6.95
2023-01-01T22:30:43.967Z,6.95
2023-01-01T22:33:17.340Z,6.95
2023-01-01T22:35:47.109Z,7.03
2023-01-01T22:38:19.175Z,6.82
2023-01-01T22:40:50.071Z,7.04
2023-01-01T22:43:20.505Z,6.49
2023-01-01T22:45:50.620Z,6.59
2023-01-01T22:48:22.869Z,6.65
2023-01-01T22:50:54.100Z,6.21
2023-01-01T22:53:22.041Z,5.82
2023-01-01T22:55:49.976Z,6.03
2023-01-01T22:58:17.899Z,6.38
2023-01-01T23:00:45.828Z,6.50
2023-01-01T23:03:13.797Z,6.49
2023-01-01T23:05:41.920Z,6.56
2023-01-01T23:08:11.303Z,6.37
2023-01-01T23:10:39.280Z,6.15
2023-01-01T23:13:21.188Z,6.22
2023-01-01T23:16:04.115Z,5.93
2023-01-01T23:18:33.928Z,6.00
2023-01-01T23:21:02.799Z,5.95
2023-01-01T23:23:32.994Z,6.15
2023-01-01T23:26:02.816Z,6.09
2023-01-01T23:28:32.408Z,6.15
2023-01-01T23:31:03.391Z,6.20
2023-01-01T23:33:32.697Z,6.23
2023-01-01T23:36:01.731Z,6.20
2023-01-01T23:38:32.003Z,6.20
2023-01-01T23:40:59.979Z,6.11
2023-01-01T23:43:28.015Z,6.18
2023-01-01T23:45:56.226Z,6.15
2023-01-01T23:48:24.789Z,6.13
2023-01-01T23:50:52.872Z,6.06
2023-01-01T23:53:20.816Z,6.06
2023-01-01T23:55:50.145Z,6.10
2023-01-01T23:58:18.147Z,6.10
